createdAt,value
2022-08-05T00:00:06.659Z,26.03
2022-08-05T00:06:01.782Z,26.08
2022-08-05T00:10:34.415Z,26.07
2022-08-05T00:15:55.496Z,26.04
2022-08-05T00:21:00.327Z,25.97
2022-08-05T00:26:04.727Z,25.98
2022-08-05T00:31:08.001Z,25.95
2022-08-05T00:36:15.920Z,25.88
2022-08-05T00:41:54.876Z,25.78
2022-08-05T00:46:54.107Z,25.50
2022-08-05T00:52:04.967Z,25.27
2022-08-05T00:57:09.108Z,25.25
2022-08-05T01:02:12.020Z,24.99
2022-08-05T01:07:14.729Z,24.92
2022-08-05T01:12:22.701Z,24.80
2022-08-05T01:17:29.172Z,24.62
2022-08-05T01:22:41.860Z,24.34
2022-08-05T01:28:06.262Z,24.35
2022-08-05T01:33:11.842Z,24.46
2022-08-05T01:38:24.659Z,24.46
2022-08-05T01:43:33.075Z,24.44
2022-08-05T01:48:37.443Z,24.39
2022-08-05T01:53:57.433Z,24.33
2022-08-05T01:59:04.824Z,24.31
2022-08-05T02:04:07.986Z,24.29
2022-08-05T02:09:14.727Z,24.24
2022-08-05T02:14:23.172Z,24.12
2022-08-05T02:19:34.594Z,23.99
2022-08-05T02:24:39.451Z,23.74
2022-08-05T02:29:58.668Z,23.79
2022-08-05T02:35:09.723Z,23.80
2022-08-05T02:40:17.652Z,23.74
2022-08-05T02:45:24.090Z,23.65
2022-08-05T02:50:28.772Z,23.60
2022-08-05T02:55:52.102Z,23.58
2022-08-05T03:00:57.815Z,23.49
2022-08-05T03:06:55.445Z,23.39
2022-08-05T03:11:55.240Z,23.39
2022-08-05T03:16:48.992Z,23.26
2022-08-05T03:21:54.657Z,23.09
2022-08-05T03:26:57.458Z,23.03
2022-08-05T03:32:01.759Z,22.84
2022-08-05T03:37:05.436Z,22.73
2022-08-05T03:42:08.447Z,22.66
2022-08-05T03:47:13.699Z,22.63
2022-08-05T03:52:39.199Z,22.44
2022-08-05T03:57:49.928Z,22.39
2022-08-05T04:02:58.901Z,22.45
2022-08-05T04:08:03.146Z,22.60
2022-08-05T04:13:06.706Z,22.88
2022-08-05T04:18:22.505Z,22.95
2022-08-05T04:23:57.355Z,23.13
2022-08-05T04:28:52.343Z,23.09
2022-08-05T04:34:29.578Z,23.14
2022-08-05T04:39:19.158Z,23.17
2022-08-05T04:44:29.157Z,23.05
2022-08-05T04:50:00.956Z,23.13
2022-08-05T04:54:57.776Z,23.00
2022-08-05T05:00:01.671Z,22.59
2022-08-05T05:05:26.363Z,22.72
2022-08-05T05:10:29.864Z,22.83
2022-08-05T05:15:56.795Z,22.86
2022-08-05T05:20:58.511Z,22.94
2022-08-05T05:26:01.428Z,22.95
2022-08-05T05:31:05.671Z,23.04
2022-08-05T05:36:12.941Z,23.04
2022-08-05T05:41:17.531Z,22.98
2022-08-05T05:46:21.820Z,23.03
2022-08-05T05:51:28.022Z,23.22
2022-08-05T05:56:34.684Z,23.17
2022-08-05T06:01:39.724Z,23.16
2022-08-05T06:06:47.447Z,23.30
2022-08-05T06:12:01.424Z,23.43
2022-08-05T06:17:22.407Z,23.65
2022-08-05T06:22:29.893Z,23.97
2022-08-05T06:28:10.965Z,24.19
2022-08-05T06:32:55.934Z,24.38
2022-08-05T06:38:04.238Z,24.62
2022-08-05T06:43:58.966Z,24.79
2022-08-05T06:48:55.470Z,24.78
2022-08-05T06:54:01.849Z,24.57
2022-08-05T06:59:08.333Z,24.48
2022-08-05T07:04:14.070Z,24.64
2022-08-05T07:09:18.415Z,24.74
2022-08-05T07:14:39.902Z,24.76
2022-08-05T07:20:31.277Z,24.93
2022-08-05T07:25:23.831Z,25.02
2022-08-05T07:30:33.709Z,25.08
2022-08-05T07:36:02.437Z,25.21
2022-08-05T07:41:16.740Z,25.51
2022-08-05T07:46:26.085Z,25.66
2022-08-05T07:51:36.754Z,25.65
2022-08-05T07:57:01.879Z,25.60
2022-08-05T08:02:07.184Z,25.51
2022-08-05T08:07:22.650Z,25.33
2022-08-05T08:12:39.382Z,25.68
2022-08-05T08:17:52.598Z,25.91
2022-08-05T08:22:57.125Z,26.03
2022-08-05T08:28:01.540Z,26.21
2022-08-05T08:33:09.116Z,26.38
2022-08-05T08:38:16.865Z,26.23
2022-08-05T08:45:16.942Z,25.79
2022-08-05T08:50:07.764Z,25.64
2022-08-05T08:54:28.134Z,25.67
2022-08-05T08:59:33.426Z,25.71
2022-08-05T09:04:58.137Z,25.77
2022-08-05T09:10:01.290Z,25.98
2022-08-05T09:15:07.736Z,26.15
2022-08-05T09:20:12.552Z,26.33
2022-08-05T09:25:24.452Z,26.52
2022-08-05T09:30:55.149Z,26.70
2022-08-05T09:36:02.629Z,27.15
2022-08-05T09:41:16.070Z,27.95
2022-08-05T09:46:29.180Z,28.32
2022-08-05T09:51:33.087Z,28.20
2022-08-05T09:56:40.270Z,28.28
2022-08-05T10:01:58.239Z,28.46
2022-08-05T10:07:01.649Z,28.75
2022-08-05T10:12:33.272Z,28.30
2022-08-05T10:17:40.726Z,27.76
2022-08-05T10:22:50.824Z,27.62
2022-08-05T10:28:13.058Z,27.94
2022-08-05T10:33:18.423Z,28.52
2022-08-05T10:38:22.478Z,29.34
2022-08-05T10:43:37.067Z,29.76
2022-08-05T10:48:57.318Z,29.73
2022-08-05T10:54:05.709Z,29.79
2022-08-05T11:00:03.677Z,30.21
2022-08-05T11:04:57.215Z,30.55
2022-08-05T11:10:09.606Z,29.97
2022-08-05T11:15:21.659Z,29.45
2022-08-05T11:20:43.694Z,29.59
2022-08-05T11:26:04.452Z,29.85
2022-08-05T11:31:57.202Z,29.89
2022-08-05T11:36:52.911Z,30.33
2022-08-05T11:42:02.208Z,30.78
2022-08-05T11:47:19.979Z,30.33
2022-08-05T11:52:29.426Z,29.88
2022-08-05T11:58:08.165Z,30.13
2022-08-05T12:02:56.743Z,31.42
2022-08-05T12:08:10.542Z,32.33
2022-08-05T12:13:16.844Z,33.15
2022-08-05T12:18:32.731Z,33.65
2022-08-05T12:23:43.204Z,33.31
2022-08-05T12:28:46.315Z,33.68
2022-08-05T12:33:49.778Z,35.33
2022-08-05T12:38:55.017Z,37.10
2022-08-05T12:43:59.384Z,36.96
2022-08-05T12:49:13.560Z,35.46
2022-08-05T12:54:23.677Z,35.23
2022-08-05T13:00:08.723Z,34.41
2022-08-05T13:04:54.994Z,34.40
2022-08-05T13:09:59.701Z,35.23
2022-08-05T13:15:06.199Z,33.46
2022-08-05T13:20:12.313Z,32.66
2022-08-05T13:25:18.807Z,31.79
2022-08-05T13:30:34.544Z,31.33
2022-08-05T13:35:47.161Z,31.08
2022-08-05T13:40:55.831Z,30.89
2022-08-05T13:45:58.626Z,30.84
2022-08-05T13:51:06.529Z,31.34
2022-08-05T13:56:18.481Z,33.59
2022-08-05T14:01:27.468Z,33.78
2022-08-05T14:06:39.176Z,35.27
2022-08-05T14:12:00.327Z,35.02
2022-08-05T14:17:07.645Z,35.16
2022-08-05T14:22:21.505Z,35.27
2022-08-05T14:27:28.364Z,38.77
2022-08-05T14:32:31.509Z,38.48
2022-08-05T14:37:45.614Z,38.29
2022-08-05T14:42:53.257Z,42.66
2022-08-05T14:48:05.766Z,43.09
2022-08-05T14:53:12.378Z,36.89
2022-08-05T14:58:17.923Z,33.46
2022-08-05T15:03:22.953Z,34.36
2022-08-05T15:08:58.666Z,38.26
2022-08-05T15:13:50.481Z,38.14
2022-08-05T15:18:53.341Z,38.15
2022-08-05T15:23:56.076Z,35.51
2022-08-05T15:29:02.461Z,35.39
2022-08-05T15:34:32.405Z,35.01
2022-08-05T15:41:04.793Z,34.25
2022-08-05T15:44:54.810Z,33.93
2022-08-05T15:49:59.434Z,32.15
2022-08-05T15:55:03.594Z,32.04
2022-08-05T16:00:09.775Z,32.27
2022-08-05T16:05:14.097Z,32.92
2022-08-05T16:10:25.294Z,31.64
2022-08-05T16:15:32.598Z,31.00
2022-08-05T16:20:36.752Z,30.53
2022-08-05T16:25:40.002Z,29.63
2022-08-05T16:30:45.489Z,28.61
2022-08-05T16:35:52.789Z,26.75
2022-08-05T16:41:00.838Z,25.99
2022-08-05T16:46:23.783Z,25.57
2022-08-05T16:51:30.681Z,25.22
2022-08-05T16:56:45.474Z,24.32
2022-08-05T17:01:56.944Z,23.91
2022-08-05T17:07:01.838Z,23.69
2022-08-05T17:12:06.616Z,23.25
2022-08-05T17:17:15.142Z,23.11
2022-08-05T17:22:25.465Z,22.90
2022-08-05T17:27:34.418Z,22.97
2022-08-05T17:32:38.637Z,23.13
2022-08-05T17:37:45.508Z,23.27
2022-08-05T17:42:53.132Z,22.88
2022-08-05T17:47:57.807Z,22.70
2022-08-05T17:53:01.218Z,22.59
2022-08-05T17:58:03.925Z,22.39
2022-08-05T18:03:08.208Z,22.20
2022-08-05T18:08:11.312Z,22.13
2022-08-05T18:13:14.225Z,22.05
2022-08-05T18:18:18.563Z,22.09
2022-08-05T18:23:21.252Z,22.20
2022-08-05T18:28:28.392Z,22.03
2022-08-05T18:33:37.635Z,22.00
2022-08-05T18:38:49.836Z,22.02
2022-08-05T18:43:53.590Z,21.96
2022-08-05T18:49:18.406Z,22.04
2022-08-05T18:54:22.029Z,21.82
2022-08-05T18:59:43.895Z,21.65
2022-08-05T19:05:02.687Z,21.62
2022-08-05T19:10:12.491Z,21.50
2022-08-05T19:15:56.825Z,21.31
2022-08-05T19:20:41.585Z,21.38
2022-08-05T19:25:46.345Z,21.37
2022-08-05T19:30:49.610Z,21.40
2022-08-05T19:35:56.383Z,21.36
2022-08-05T19:41:00.405Z,21.34
2022-08-05T19:46:04.239Z,21.40
2022-08-05T19:51:56.429Z,21.27
2022-08-05T19:56:44.752Z,21.34
2022-08-05T20:01:48.817Z,21.29
2022-08-05T20:06:53.023Z,21.52
2022-08-05T20:11:55.870Z,21.16
2022-08-05T20:16:59.216Z,21.16
2022-08-05T20:22:05.838Z,21.13
2022-08-05T20:27:12.329Z,21.13
2022-08-05T20:32:15.006Z,21.04
2022-08-05T20:38:04.927Z,20.91
2022-08-05T20:42:42.123Z,20.78
2022-08-05T20:47:46.408Z,20.77
2022-08-05T20:52:51.191Z,20.84
2022-08-05T20:57:55.348Z,20.65
2022-08-05T21:03:06.948Z,20.37
2022-08-05T21:08:11.964Z,20.28
2022-08-05T21:13:18.498Z,20.32
2022-08-05T21:18:37.429Z,20.39
2022-08-05T21:23:41.455Z,20.38
2022-08-05T21:28:50.618Z,20.50
2022-08-05T21:33:53.851Z,20.18
2022-08-05T21:38:58.541Z,19.72
2022-08-05T21:44:04.174Z,19.71
2022-08-05T21:49:10.071Z,19.72
2022-08-05T21:54:32.756Z,19.91
2022-08-05T22:00:01.661Z,20.00
2022-08-05T22:04:59.620Z,20.02
2022-08-05T22:10:04.293Z,20.25
2022-08-05T22:15:09.747Z,20.20
2022-08-05T22:20:19.724Z,20.32
2022-08-05T22:26:10.618Z,20.42
2022-08-05T22:31:11.207Z,20.43
2022-08-05T22:36:14.852Z,20.44
2022-08-05T22:41:26.235Z,20.41
2022-08-05T22:46:43.092Z,20.37
2022-08-05T22:52:04.521Z,20.25
2022-08-05T22:57:12.690Z,19.87
2022-08-05T23:02:18.145Z,19.83
2022-08-05T23:07:22.043Z,20.03
2022-08-05T23:12:28.683Z,20.07
2022-08-05T23:17:34.835Z,20.06
2022-08-05T23:22:40.957Z,20.07
2022-08-05T23:27:57.784Z,20.14
2022-08-05T23:33:03.886Z,19.96
2022-08-05T23:38:06.677Z,19.87
2022-08-05T23:43:25.104Z,19.79
2022-08-05T23:48:39.099Z,19.58
2022-08-05T23:53:46.368Z,19.36
2022-08-05T23:58:51.155Z,19.35
